Hlavní strana
METAR-TAF:

METAR-TAF

Letiště :

Bělgorod, Rusko

zeměpisná šířka: 50-38-36N, zeměpisná délka: 036-35-24E, výška: 224 m

Aktuální stav počasí

Zpráva byla vytvořena před 42 minutami, v 03:30 UTC
Severozápadní vítr 8 kt
Teplota 0°C
Vlhkost vzduchu 51%
Tlak 1026 hPa
Viditelnost 10 km a více
Žádná oblačnost pod 1500 m, nevyskytují se cumulonimby.

METAR: UUOB 050330Z 31004MPS CAVOK M00/M09 Q1026 R29/010060 NOSIG

Čas: 07:12 (04:12 UTC)

Předpověď počasí

Zpráva byla vytvořena před 2 hodinami a 12 minutami, v 02:00 UTC
Předpověď platná od 05 v 03 UTC do 05 v 12 UTC
Západoseverozápadní vítr 6 kt
Viditelnost 10 km a více
Žádná oblačnost pod 1500 m, nevyskytují se cumulonimby.

TAF: UUOB 050200Z 0503/0512 30003MPS CAVOK

Stav a předpovědi počasí z více než 4 000 letišť (zprávy METAR a TAF).

Červené a žluté tečky na mapě představují dostupné meteorologické stanice.

Když kurzor umístíte na tečku, zobrazí se název stanice.

Pak kliknutím zobrazíte stav a předpověď počasí.

Chcete-li změnit mapu, kliknutím na zelené tlačítko se znaménkem +mapu přiblížíte, kliknutím na zelené tlačítko se znaménkem – mapu oddálíte a kliknutím na zelené šipky přejdete na sousední mapy.


METAR-TAF: